sensor_id;sensor_type;location;lat;lon;timestamp;temperature;humidity
64961;SHT31;51487;52.266;10.542;2023-07-24T00:01:17;19.77;86.29
64961;SHT31;51487;52.266;10.542;2023-07-24T00:03:44;19.77;86.21
64961;SHT31;51487;52.266;10.542;2023-07-24T00:06:10;19.71;86.41
64961;SHT31;51487;52.266;10.542;2023-07-24T00:08:35;19.74;86.09
64961;SHT31;51487;52.266;10.542;2023-07-24T00:11:01;19.73;86.21
64961;SHT31;51487;52.266;10.542;2023-07-24T00:13:29;19.74;86.34
64961;SHT31;51487;52.266;10.542;2023-07-24T00:15:57;19.67;86.50
64961;SHT31;51487;52.266;10.542;2023-07-24T00:18:22;19.60;86.75
64961;SHT31;51487;52.266;10.542;2023-07-24T00:20:48;19.75;86.23
64961;SHT31;51487;52.266;10.542;2023-07-24T00:23:13;19.75;86.23
64961;SHT31;51487;52.266;10.542;2023-07-24T00:25:39;19.71;86.38
64961;SHT31;51487;52.266;10.542;2023-07-24T00:28:05;19.73;86.38
64961;SHT31;51487;52.266;10.542;2023-07-24T00:30:30;19.79;85.97
64961;SHT31;51487;52.266;10.542;2023-07-24T00:32:56;19.81;86.00
64961;SHT31;51487;52.266;10.542;2023-07-24T00:35:22;19.75;86.27
64961;SHT31;51487;52.266;10.542;2023-07-24T00:37:47;19.82;86.11
64961;SHT31;51487;52.266;10.542;2023-07-24T00:40:13;19.84;85.93
64961;SHT31;51487;52.266;10.542;2023-07-24T00:42:38;19.85;86.00
64961;SHT31;51487;52.266;10.542;2023-07-24T00:45:05;19.85;86.02
64961;SHT31;51487;52.266;10.542;2023-07-24T00:47:30;19.85;86.03
64961;SHT31;51487;52.266;10.542;2023-07-24T00:49:56;19.79;86.31
64961;SHT31;51487;52.266;10.542;2023-07-24T00:52:22;19.77;86.41
64961;SHT31;51487;52.266;10.542;2023-07-24T00:54:49;19.78;86.37
64961;SHT31;51487;52.266;10.542;2023-07-24T00:57:16;19.79;86.30
64961;SHT31;51487;52.266;10.542;2023-07-24T00:59:42;19.78;86.54
64961;SHT31;51487;52.266;10.542;2023-07-24T01:02:08;19.78;86.41
64961;SHT31;51487;52.266;10.542;2023-07-24T01:04:34;19.81;86.44
64961;SHT31;51487;52.266;10.542;2023-07-24T01:07:00;19.79;86.44
64961;SHT31;51487;52.266;10.542;2023-07-24T01:09:25;19.78;86.50
64961;SHT31;51487;52.266;10.542;2023-07-24T01:12:20;19.73;86.84
64961;SHT31;51487;52.266;10.542;2023-07-24T01:14:56;19.75;86.82
64961;SHT31;51487;52.266;10.542;2023-07-24T01:17:25;19.73;86.86
64961;SHT31;51487;52.266;10.542;2023-07-24T01:19:55;19.73;86.78
64961;SHT31;51487;52.266;10.542;2023-07-24T01:27:32;19.63;87.21
64961;SHT31;51487;52.266;10.542;2023-07-24T01:29:58;19.64;87.30
64961;SHT31;51487;52.266;10.542;2023-07-24T01:32:24;19.60;87.30
64961;SHT31;51487;52.266;10.542;2023-07-24T01:34:51;19.49;87.81
64961;SHT31;51487;52.266;10.542;2023-07-24T01:37:20;19.46;87.89
64961;SHT31;51487;52.266;10.542;2023-07-24T01:39:47;19.44;88.01
64961;SHT31;51487;52.266;10.542;2023-07-24T01:42:14;19.44;88.05
64961;SHT31;51487;52.266;10.542;2023-07-24T01:44:39;19.34;88.40
64961;SHT31;51487;52.266;10.542;2023-07-24T01:47:05;19.28;88.64
64961;SHT31;51487;52.266;10.542;2023-07-24T01:49:30;19.33;88.63
64961;SHT31;51487;52.266;10.542;2023-07-24T01:51:56;19.38;88.39
64961;SHT31;51487;52.266;10.542;2023-07-24T01:54:23;19.40;88.27
64961;SHT31;51487;52.266;10.542;2023-07-24T01:56:48;19.38;88.38
64961;SHT31;51487;52.266;10.542;2023-07-24T01:59:14;19.49;87.97
64961;SHT31;51487;52.266;10.542;2023-07-24T02:01:40;19.47;88.07
64961;SHT31;51487;52.266;10.542;2023-07-24T02:04:06;19.53;87.74
64961;SHT31;51487;52.266;10.542;2023-07-24T02:06:31;19.54;87.87
64961;SHT31;51487;52.266;10.542;2023-07-24T02:08:57;19.54;87.72
64961;SHT31;51487;52.266;10.542;2023-07-24T02:11:23;19.49;87.87
64961;SHT31;51487;52.266;10.542;2023-07-24T02:13:48;19.49;87.90
64961;SHT31;51487;52.266;10.542;2023-07-24T02:16:14;19.50;87.74
64961;SHT31;51487;52.266;10.542;2023-07-24T02:18:42;19.53;87.73
64961;SHT31;51487;52.266;10.542;2023-07-24T02:21:08;19.58;87.52
64961;SHT31;51487;52.266;10.542;2023-07-24T02:23:34;19.58;87.55
64961;SHT31;51487;52.266;10.542;2023-07-24T02:26:00;19.55;87.50
64961;SHT31;51487;52.266;10.542;2023-07-24T02:28:26;19.54;87.49
64961;SHT31;51487;52.266;10.542;2023-07-24T02:30:51;19.47;87.62
64961;SHT31;51487;52.266;10.542;2023-07-24T02:33:21;19.49;87.63
64961;SHT31;51487;52.266;10.542;2023-07-24T02:35:47;19.58;87.48
64961;SHT31;51487;52.266;10.542;2023-07-24T02:38:13;19.57;87.33
64961;SHT31;51487;52.266;10.542;2023-07-24T02:40:41;19.63;87.22
64961;SHT31;51487;52.266;10.542;2023-07-24T02:43:06;19.65;87.11
64961;SHT31;51487;52.266;10.542;2023-07-24T02:45:36;19.73;86.67
64961;SHT31;51487;52.266;10.542;2023-07-24T02:48:02;19.73;86.76
64961;SHT31;51487;52.266;10.542;2023-07-24T02:50:28;19.75;86.42
64961;SHT31;51487;52.266;10.542;2023-07-24T02:52:54;19.71;86.70
64961;SHT31;51487;52.266;10.542;2023-07-24T02:55:20;19.65;86.82
64961;SHT31;51487;52.266;10.542;2023-07-24T02:57:45;19.63;86.85
64961;SHT31;51487;52.266;10.542;2023-07-24T03:00:11;19.58;87.02
64961;SHT31;51487;52.266;10.542;2023-07-24T03:02:38;19.58;86.74
64961;SHT31;51487;52.266;10.542;2023-07-24T03:05:04;19.57;86.85
64961;SHT31;51487;52.266;10.542;2023-07-24T03:07:30;19.60;86.84
64961;SHT31;51487;52.266;10.542;2023-07-24T03:09:55;19.64;86.65
64961;SHT31;51487;52.266;10.542;2023-07-24T03:12:21;19.70;86.38
64961;SHT31;51487;52.266;10.542;2023-07-24T03:14:47;19.67;86.45
64961;SHT31;51487;52.266;10.542;2023-07-24T03:17:13;19.60;86.53
64961;SHT31;51487;52.266;10.542;2023-07-24T03:19:41;19.65;86.45
64961;SHT31;51487;52.266;10.542;2023-07-24T03:22:07;19.58;86.47
64961;SHT31;51487;52.266;10.542;2023-07-24T03:24:34;19.61;86.29
64961;SHT31;51487;52.266;10.542;2023-07-24T03:27:00;19.58;86.52
64961;SHT31;51487;52.266;10.542;2023-07-24T03:29:27;19.55;86.40
64961;SHT31;51487;52.266;10.542;2023-07-24T03:31:52;19.53;86.57
64961;SHT31;51487;52.266;10.542;2023-07-24T03:34:18;19.49;86.67
64961;SHT31;51487;52.266;10.542;2023-07-24T03:36:44;19.46;86.80
64961;SHT31;51487;52.266;10.542;2023-07-24T03:39:10;19.55;86.50
64961;SHT31;51487;52.266;10.542;2023-07-24T03:41:37;19.60;86.32
64961;SHT31;51487;52.266;10.542;2023-07-24T03:44:03;19.54;86.56
64961;SHT31;51487;52.266;10.542;2023-07-24T03:46:29;19.54;86.41
64961;SHT31;51487;52.266;10.542;2023-07-24T03:48:55;19.46;86.94
64961;SHT31;51487;52.266;10.542;2023-07-24T03:51:20;19.40;87.16
64961;SHT31;51487;52.266;10.542;2023-07-24T03:53:46;19.49;86.76
64961;SHT31;51487;52.266;10.542;2023-07-24T03:56:12;19.51;86.75
64961;SHT31;51487;52.266;10.542;2023-07-24T03:58:38;19.55;86.73
64961;SHT31;51487;52.266;10.542;2023-07-24T04:01:08;19.58;86.64
64961;SHT31;51487;52.266;10.542;2023-07-24T04:03:34;19.60;86.45
64961;SHT31;51487;52.266;10.542;2023-07-24T04:06:00;19.65;86.47
64961;SHT31;51487;52.266;10.542;2023-07-24T04:08:25;19.73;86.14
64961;SHT31;51487;52.266;10.542;2023-07-24T04:10:51;19.70;86.22
64961;SHT31;51487;52.266;10.542;2023-07-24T04:13:17;19.64;86.42
64961;SHT31;51487;52.266;10.542;2023-07-24T04:15:43;19.74;86.20
64961;SHT31;51487;52.266;10.542;2023-07-24T04:18:10;19.68;86.38
64961;SHT31;51487;52.266;10.542;2023-07-24T04:20:36;19.63;86.42
64961;SHT31;51487;52.266;10.542;2023-07-24T04:23:01;19.68;85.99
64961;SHT31;51487;52.266;10.542;2023-07-24T04:25:27;19.63;86.24
64961;SHT31;51487;52.266;10.542;2023-07-24T04:27:52;19.68;85.87
64961;SHT31;51487;52.266;10.542;2023-07-24T04:30:18;19.77;85.86
64961;SHT31;51487;52.266;10.542;2023-07-24T04:32:43;19.70;86.08
64961;SHT31;51487;52.266;10.542;2023-07-24T04:35:09;19.64;86.09
64961;SHT31;51487;52.266;10.542;2023-07-24T04:37:35;19.65;86.18
64961;SHT31;51487;52.266;10.542;2023-07-24T04:40:00;19.58;86.48
64961;SHT31;51487;52.266;10.542;2023-07-24T04:42:26;19.61;86.34
64961;SHT31;51487;52.266;10.542;2023-07-24T04:44:52;19.53;86.70
64961;SHT31;51487;52.266;10.542;2023-07-24T04:47:17;19.51;86.14
64961;SHT31;51487;52.266;10.542;2023-07-24T04:49:43;19.55;86.18
64961;SHT31;51487;52.266;10.542;2023-07-24T04:52:08;19.61;86.16
64961;SHT31;51487;52.266;10.542;2023-07-24T04:54:34;19.64;85.89
64961;SHT31;51487;52.266;10.542;2023-07-24T04:56:59;19.65;85.84
64961;SHT31;51487;52.266;10.542;2023-07-24T04:59:25;19.70;85.56
64961;SHT31;51487;52.266;10.542;2023-07-24T05:01:51;19.88;84.81
64961;SHT31;51487;52.266;10.542;2023-07-24T05:04:17;19.89;85.06
64961;SHT31;51487;52.266;10.542;2023-07-24T05:06:42;20.01;84.77
64961;SHT31;51487;52.266;10.542;2023-07-24T05:09:08;19.84;85.27
64961;SHT31;51487;52.266;10.542;2023-07-24T05:11:33;19.94;84.94
64961;SHT31;51487;52.266;10.542;2023-07-24T05:13:59;19.94;85.10
64961;SHT31;51487;52.266;10.542;2023-07-24T05:16:25;19.89;85.02
64961;SHT31;51487;52.266;10.542;2023-07-24T05:18:50;19.86;84.91
64961;SHT31;51487;52.266;10.542;2023-07-24T05:21:16;19.85;85.03
64961;SHT31;51487;52.266;10.542;2023-07-24T05:23:41;19.85;85.04
64961;SHT31;51487;52.266;10.542;2023-07-24T05:26:07;19.95;84.70
64961;SHT31;51487;52.266;10.542;2023-07-24T05:28:33;20.02;84.16
64961;SHT31;51487;52.266;10.542;2023-07-24T05:31:05;20.09;83.92
64961;SHT31;51487;52.266;10.542;2023-07-24T05:33:32;20.18;83.90
64961;SHT31;51487;52.266;10.542;2023-07-24T05:36:02;20.12;83.81
64961;SHT31;51487;52.266;10.542;2023-07-24T05:38:29;20.18;83.91
64961;SHT31;51487;52.266;10.542;2023-07-24T05:40:59;20.30;83.04
64961;SHT31;51487;52.266;10.542;2023-07-24T05:43:26;20.42;82.84
64961;SHT31;51487;52.266;10.542;2023-07-24T05:45:54;20.50;82.79
64961;SHT31;51487;52.266;10.542;2023-07-24T05:48:20;20.53;82.55
64961;SHT31;51487;52.266;10.542;2023-07-24T05:50:46;20.54;82.79
64961;SHT31;51487;52.266;10.542;2023-07-24T05:53:13;20.60;82.24
64961;SHT31;51487;52.266;10.542;2023-07-24T05:55:39;20.80;81.77
64961;SHT31;51487;52.266;10.542;2023-07-24T05:58:04;20.88;81.64
64961;SHT31;51487;52.266;10.542;2023-07-24T06:00:30;21.00;81.19
64961;SHT31;51487;52.266;10.542;2023-07-24T06:02:56;21.04;81.55
64961;SHT31;51487;52.266;10.542;2023-07-24T06:05:21;21.04;81.10
64961;SHT31;51487;52.266;10.542;2023-07-24T06:07:47;20.91;81.87
64961;SHT31;51487;52.266;10.542;2023-07-24T06:10:13;20.90;82.20
64961;SHT31;51487;52.266;10.542;2023-07-24T06:12:39;20.94;82.73
64961;SHT31;51487;52.266;10.542;2023-07-24T06:15:06;21.05;82.76
64961;SHT31;51487;52.266;10.542;2023-07-24T06:17:32;21.04;83.89
64961;SHT31;51487;52.266;10.542;2023-07-24T06:19:58;21.10;84.30
64961;SHT31;51487;52.266;10.542;2023-07-24T06:22:24;21.01;84.35
64961;SHT31;51487;52.266;10.542;2023-07-24T06:24:50;21.00;83.92
64961;SHT31;51487;52.266;10.542;2023-07-24T06:27:16;21.04;84.09
64961;SHT31;51487;52.266;10.542;2023-07-24T06:29:41;21.01;83.77
64961;SHT31;51487;52.266;10.542;2023-07-24T06:32:08;20.91;83.92
64961;SHT31;51487;52.266;10.542;2023-07-24T06:34:34;20.94;84.25
64961;SHT31;51487;52.266;10.542;2023-07-24T06:37:00;20.88;83.88
64961;SHT31;51487;52.266;10.542;2023-07-24T06:39:25;21.00;83.52
64961;SHT31;51487;52.266;10.542;2023-07-24T06:41:52;21.25;82.93
64961;SHT31;51487;52.266;10.542;2023-07-24T06:44:18;21.45;82.34
64961;SHT31;51487;52.266;10.542;2023-07-24T06:46:44;21.46;82.27
64961;SHT31;51487;52.266;10.542;2023-07-24T06:49:09;21.50;81.62
64961;SHT31;51487;52.266;10.542;2023-07-24T06:51:37;21.60;81.75
64961;SHT31;51487;52.266;10.542;2023-07-24T06:54:04;21.55;81.16
64961;SHT31;51487;52.266;10.542;2023-07-24T06:56:31;21.72;80.61
64961;SHT31;51487;52.266;10.542;2023-07-24T06:58:56;21.78;80.72
64961;SHT31;51487;52.266;10.542;2023-07-24T07:01:22;21.66;80.49
64961;SHT31;51487;52.266;10.542;2023-07-24T07:03:48;21.86;79.74
64961;SHT31;51487;52.266;10.542;2023-07-24T07:06:13;22.01;79.20
64961;SHT31;51487;52.266;10.542;2023-07-24T07:08:39;21.96;78.23
64961;SHT31;51487;52.266;10.542;2023-07-24T07:11:05;21.82;78.88
64961;SHT31;51487;52.266;10.542;2023-07-24T07:13:30;21.93;78.78
64961;SHT31;51487;52.266;10.542;2023-07-24T07:15:56;21.83;79.25
64961;SHT31;51487;52.266;10.542;2023-07-24T07:18:22;21.80;78.52
64961;SHT31;51487;52.266;10.542;2023-07-24T07:20:53;21.86;78.41
64961;SHT31;51487;52.266;10.542;2023-07-24T07:23:20;21.86;79.17
64961;SHT31;51487;52.266;10.542;2023-07-24T07:25:46;21.89;78.54
64961;SHT31;51487;52.266;10.542;2023-07-24T07:28:15;22.03;78.63
64961;SHT31;51487;52.266;10.542;2023-07-24T07:30:42;22.13;78.20
64961;SHT31;51487;52.266;10.542;2023-07-24T07:33:08;22.01;77.92
64961;SHT31;51487;52.266;10.542;2023-07-24T07:35:35;22.04;78.03
64961;SHT31;51487;52.266;10.542;2023-07-24T07:38:02;22.17;77.17
64961;SHT31;51487;52.266;10.542;2023-07-24T07:40:28;22.21;77.47
64961;SHT31;51487;52.266;10.542;2023-07-24T07:42:54;22.31;77.25
64961;SHT31;51487;52.266;10.542;2023-07-24T07:45:21;22.44;76.76
64961;SHT31;51487;52.266;10.542;2023-07-24T07:47:48;22.55;75.62
64961;SHT31;51487;52.266;10.542;2023-07-24T07:50:13;22.67;75.40
64961;SHT31;51487;52.266;10.542;2023-07-24T07:52:39;22.71;75.08
64961;SHT31;51487;52.266;10.542;2023-07-24T07:55:05;22.85;74.60
64961;SHT31;51487;52.266;10.542;2023-07-24T07:57:35;22.89;74.45
64961;SHT31;51487;52.266;10.542;2023-07-24T08:00:03;22.82;74.42
64961;SHT31;51487;52.266;10.542;2023-07-24T08:02:28;22.94;74.19
64961;SHT31;51487;52.266;10.542;2023-07-24T08:04:54;23.05;74.18
64961;SHT31;51487;52.266;10.542;2023-07-24T08:07:20;23.10;73.86
64961;SHT31;51487;52.266;10.542;2023-07-24T08:09:46;23.15;73.44
64961;SHT31;51487;52.266;10.542;2023-07-24T08:12:12;23.12;73.46
64961;SHT31;51487;52.266;10.542;2023-07-24T08:14:37;23.06;73.68
64961;SHT31;51487;52.266;10.542;2023-07-24T08:17:03;23.03;73.66
64961;SHT31;51487;52.266;10.542;2023-07-24T08:19:29;23.02;73.34
64961;SHT31;51487;52.266;10.542;2023-07-24T08:21:55;23.10;72.87
64961;SHT31;51487;52.266;10.542;2023-07-24T08:24:20;23.42;71.92
64961;SHT31;51487;52.266;10.542;2023-07-24T08:26:46;23.57;71.28
64961;SHT31;51487;52.266;10.542;2023-07-24T08:29:12;23.77;70.47
64961;SHT31;51487;52.266;10.542;2023-07-24T08:31:38;24.00;71.09
64961;SHT31;51487;52.266;10.542;2023-07-24T08:34:03;24.29;72.53
64961;SHT31;51487;52.266;10.542;2023-07-24T08:36:29;24.40;69.33
64961;SHT31;51487;52.266;10.542;2023-07-24T08:38:55;24.59;68.64
64961;SHT31;51487;52.266;10.542;2023-07-24T08:41:20;24.67;67.27
64961;SHT31;51487;52.266;10.542;2023-07-24T08:43:46;24.74;67.19
64961;SHT31;51487;52.266;10.542;2023-07-24T08:46:12;24.72;66.87
64961;SHT31;51487;52.266;10.542;2023-07-24T08:48:42;24.55;67.06
64961;SHT31;51487;52.266;10.542;2023-07-24T08:51:11;24.48;67.06
64961;SHT31;51487;52.266;10.542;2023-07-24T08:53:40;24.37;67.77
64961;SHT31;51487;52.266;10.542;2023-07-24T08:56:09;24.16;68.00
64961;SHT31;51487;52.266;10.542;2023-07-24T08:58:36;23.97;68.50
64961;SHT31;51487;52.266;10.542;2023-07-24T09:01:03;23.89;68.61
64961;SHT31;51487;52.266;10.542;2023-07-24T09:03:31;23.71;69.63
64961;SHT31;51487;52.266;10.542;2023-07-24T09:05:57;23.26;74.68
64961;SHT31;51487;52.266;10.542;2023-07-24T09:08:38;23.16;75.03
64961;SHT31;51487;52.266;10.542;2023-07-24T09:11:06;23.28;75.72
64961;SHT31;51487;52.266;10.542;2023-07-24T09:13:35;23.42;76.66
64961;SHT31;51487;52.266;10.542;2023-07-24T09:16:00;23.40;76.07
64961;SHT31;51487;52.266;10.542;2023-07-24T09:18:26;23.22;76.86
64961;SHT31;51487;52.266;10.542;2023-07-24T09:20:52;23.27;76.25
64961;SHT31;51487;52.266;10.542;2023-07-24T09:23:27;23.40;75.75
64961;SHT31;51487;52.266;10.542;2023-07-24T09:25:55;23.51;75.84
64961;SHT31;51487;52.266;10.542;2023-07-24T09:28:21;23.71;74.98
64961;SHT31;51487;52.266;10.542;2023-07-24T09:30:58;23.79;74.77
64961;SHT31;51487;52.266;10.542;2023-07-24T09:33:40;24.00;73.79
64961;SHT31;51487;52.266;10.542;2023-07-24T09:36:08;24.00;73.98
64961;SHT31;51487;52.266;10.542;2023-07-24T09:38:35;24.06;74.18
64961;SHT31;51487;52.266;10.542;2023-07-24T09:41:02;24.01;72.97
64961;SHT31;51487;52.266;10.542;2023-07-24T09:43:29;24.09;72.75
64961;SHT31;51487;52.266;10.542;2023-07-24T09:45:56;24.09;72.29
64961;SHT31;51487;52.266;10.542;2023-07-24T09:48:25;24.00;72.24
64961;SHT31;51487;52.266;10.542;2023-07-24T09:50:59;24.05;71.87
64961;SHT31;51487;52.266;10.542;2023-07-24T09:54:00;23.67;72.93
64961;SHT31;51487;52.266;10.542;2023-07-24T09:56:27;23.58;72.92
64961;SHT31;51487;52.266;10.542;2023-07-24T09:58:54;23.50;73.35
64961;SHT31;51487;52.266;10.542;2023-07-24T10:01:22;23.50;73.30
64961;SHT31;51487;52.266;10.542;2023-07-24T10:03:49;23.51;73.12
64961;SHT31;51487;52.266;10.542;2023-07-24T10:06:16;23.64;72.24
64961;SHT31;51487;52.266;10.542;2023-07-24T10:08:43;23.71;71.89
64961;SHT31;51487;52.266;10.542;2023-07-24T10:11:12;23.78;71.34
64961;SHT31;51487;52.266;10.542;2023-07-24T10:13:39;23.68;71.49
64961;SHT31;51487;52.266;10.542;2023-07-24T10:16:05;23.73;71.35
64961;SHT31;51487;52.266;10.542;2023-07-24T10:18:40;23.84;71.52
64961;SHT31;51487;52.266;10.542;2023-07-24T10:21:26;23.82;71.42
64961;SHT31;51487;52.266;10.542;2023-07-24T10:23:54;23.64;71.70
64961;SHT31;51487;52.266;10.542;2023-07-24T10:26:27;23.57;71.58
64961;SHT31;51487;52.266;10.542;2023-07-24T10:28:54;23.88;70.94
64961;SHT31;51487;52.266;10.542;2023-07-24T10:31:25;23.92;71.18
64961;SHT31;51487;52.266;10.542;2023-07-24T10:34:04;24.21;69.72
64961;SHT31;51487;52.266;10.542;2023-07-24T10:36:36;24.18;69.62
64961;SHT31;51487;52.266;10.542;2023-07-24T10:39:14;24.02;69.38
64961;SHT31;51487;52.266;10.542;2023-07-24T10:41:40;24.22;69.06
64961;SHT31;51487;52.266;10.542;2023-07-24T10:44:06;24.19;68.32
64961;SHT31;51487;52.266;10.542;2023-07-24T10:46:41;24.00;68.43
64961;SHT31;51487;52.266;10.542;2023-07-24T10:49:12;24.01;68.52
64961;SHT31;51487;52.266;10.542;2023-07-24T10:51:37;23.97;69.26
64961;SHT31;51487;52.266;10.542;2023-07-24T10:54:05;24.12;69.37
64961;SHT31;51487;52.266;10.542;2023-07-24T10:56:31;24.13;68.60
64961;SHT31;51487;52.266;10.542;2023-07-24T10:59:03;24.28;67.91
64961;SHT31;51487;52.266;10.542;2023-07-24T11:01:31;24.48;68.20
64961;SHT31;51487;52.266;10.542;2023-07-24T11:03:56;24.63;67.90
64961;SHT31;51487;52.266;10.542;2023-07-24T11:06:22;24.59;67.44
64961;SHT31;51487;52.266;10.542;2023-07-24T11:08:57;24.63;66.80
64961;SHT31;51487;52.266;10.542;2023-07-24T11:11:33;24.48;66.94
64961;SHT31;51487;52.266;10.542;2023-07-24T11:14:02;24.53;67.65
64961;SHT31;51487;52.266;10.542;2023-07-24T11:16:28;24.57;67.48
64961;SHT31;51487;52.266;10.542;2023-07-24T11:18:56;24.81;66.90
64961;SHT31;51487;52.266;10.542;2023-07-24T11:21:25;25.07;67.14
64961;SHT31;51487;52.266;10.542;2023-07-24T11:23:55;25.03;66.62
64961;SHT31;51487;52.266;10.542;2023-07-24T11:26:24;24.95;66.84
64961;SHT31;51487;52.266;10.542;2023-07-24T11:28:52;25.11;66.15
64961;SHT31;51487;52.266;10.542;2023-07-24T11:31:18;25.10;66.13
64961;SHT31;51487;52.266;10.542;2023-07-24T11:33:47;24.98;66.45
64961;SHT31;51487;52.266;10.542;2023-07-24T11:36:14;25.14;65.15
64961;SHT31;51487;52.266;10.542;2023-07-24T11:38:39;25.28;65.57
64961;SHT31;51487;52.266;10.542;2023-07-24T11:41:05;25.49;64.91
64961;SHT31;51487;52.266;10.542;2023-07-24T11:43:31;25.53;64.56
64961;SHT31;51487;52.266;10.542;2023-07-24T11:45:59;25.78;63.93
64961;SHT31;51487;52.266;10.542;2023-07-24T11:48:27;25.80;63.24
64961;SHT31;51487;52.266;10.542;2023-07-24T11:50:56;25.62;63.81
64961;SHT31;51487;52.266;10.542;2023-07-24T11:53:30;25.39;64.82
64961;SHT31;51487;52.266;10.542;2023-07-24T11:55:59;25.41;63.81
64961;SHT31;51487;52.266;10.542;2023-07-24T11:58:31;25.42;64.00
64961;SHT31;51487;52.266;10.542;2023-07-24T12:00:56;25.41;63.69
64961;SHT31;51487;52.266;10.542;2023-07-24T12:03:26;25.51;63.57
64961;SHT31;51487;52.266;10.542;2023-07-24T12:05:52;25.51;63.11
64961;SHT31;51487;52.266;10.542;2023-07-24T12:08:28;25.53;63.51
64961;SHT31;51487;52.266;10.542;2023-07-24T12:10:54;25.79;62.96
64961;SHT31;51487;52.266;10.542;2023-07-24T12:13:20;26.03;61.11
64961;SHT31;51487;52.266;10.542;2023-07-24T12:15:46;26.24;61.84
64961;SHT31;51487;52.266;10.542;2023-07-24T12:18:11;26.21;61.65
64961;SHT31;51487;52.266;10.542;2023-07-24T12:20:37;26.44;61.03
64961;SHT31;51487;52.266;10.542;2023-07-24T12:23:03;26.23;60.50
64961;SHT31;51487;52.266;10.542;2023-07-24T12:25:29;26.52;60.17
64961;SHT31;51487;52.266;10.542;2023-07-24T12:27:54;26.71;59.52
64961;SHT31;51487;52.266;10.542;2023-07-24T12:30:20;26.78;59.16
64961;SHT31;51487;52.266;10.542;2023-07-24T12:32:45;26.84;57.96
64961;SHT31;51487;52.266;10.542;2023-07-24T12:35:11;26.72;58.35
64961;SHT31;51487;52.266;10.542;2023-07-24T12:37:37;26.61;58.30
64961;SHT31;51487;52.266;10.542;2023-07-24T12:40:05;26.67;57.72
64961;SHT31;51487;52.266;10.542;2023-07-24T12:42:31;26.74;58.58
64961;SHT31;51487;52.266;10.542;2023-07-24T12:44:56;26.52;61.00
64961;SHT31;51487;52.266;10.542;2023-07-24T12:47:23;26.47;60.73
64961;SHT31;51487;52.266;10.542;2023-07-24T12:49:49;26.45;60.83
64961;SHT31;51487;52.266;10.542;2023-07-24T12:52:14;26.36;60.67
64961;SHT31;51487;52.266;10.542;2023-07-24T12:54:40;26.21;60.11
64961;SHT31;51487;52.266;10.542;2023-07-24T12:57:09;25.96;60.38
64961;SHT31;51487;52.266;10.542;2023-07-24T12:59:57;26.01;60.96
64961;SHT31;51487;52.266;10.542;2023-07-24T13:02:23;25.88;61.39
64961;SHT31;51487;52.266;10.542;2023-07-24T13:05:07;25.93;60.61
64961;SHT31;51487;52.266;10.542;2023-07-24T13:07:35;25.90;60.66
64961;SHT31;51487;52.266;10.542;2023-07-24T13:10:01;25.90;60.16
64961;SHT31;51487;52.266;10.542;2023-07-24T13:12:27;25.63;60.95
64961;SHT31;51487;52.266;10.542;2023-07-24T13:14:53;25.57;60.43
64961;SHT31;51487;52.266;10.542;2023-07-24T13:17:18;25.52;60.52
64961;SHT31;51487;52.266;10.542;2023-07-24T13:20:12;25.43;60.96
64961;SHT31;51487;52.266;10.542;2023-07-24T13:22:54;25.18;61.52
64961;SHT31;51487;52.266;10.542;2023-07-24T13:25:25;25.20;63.61
64961;SHT31;51487;52.266;10.542;2023-07-24T13:27:54;24.74;66.71
64961;SHT31;51487;52.266;10.542;2023-07-24T13:30:28;24.09;70.08
64961;SHT31;51487;52.266;10.542;2023-07-24T13:33:00;23.47;72.87
64961;SHT31;51487;52.266;10.542;2023-07-24T13:35:26;23.33;74.05
64961;SHT31;51487;52.266;10.542;2023-07-24T13:37:56;22.78;76.28
64961;SHT31;51487;52.266;10.542;2023-07-24T13:40:24;22.78;76.70
64961;SHT31;51487;52.266;10.542;2023-07-24T13:42:51;22.78;77.00
64961;SHT31;51487;52.266;10.542;2023-07-24T13:45:35;23.20;75.74
64961;SHT31;51487;52.266;10.542;2023-07-24T13:48:02;22.96;76.01
64961;SHT31;51487;52.266;10.542;2023-07-24T13:50:33;22.96;76.10
64961;SHT31;51487;52.266;10.542;2023-07-24T13:53:02;22.98;76.29
64961;SHT31;51487;52.266;10.542;2023-07-24T13:55:32;23.07;76.50
64961;SHT31;51487;52.266;10.542;2023-07-24T13:58:03;23.20;75.79
64961;SHT31;51487;52.266;10.542;2023-07-24T14:00:32;23.03;75.79
64961;SHT31;51487;52.266;10.542;2023-07-24T14:02:57;23.06;75.06
64961;SHT31;51487;52.266;10.542;2023-07-24T14:05:29;23.39;74.32
64961;SHT31;51487;52.266;10.542;2023-07-24T14:07:55;23.42;72.18
64961;SHT31;51487;52.266;10.542;2023-07-24T14:10:20;23.50;72.10
64961;SHT31;51487;52.266;10.542;2023-07-24T14:12:50;23.58;71.49
64961;SHT31;51487;52.266;10.542;2023-07-24T14:15:16;23.31;71.44
64961;SHT31;51487;52.266;10.542;2023-07-24T14:17:45;23.51;70.98
64961;SHT31;51487;52.266;10.542;2023-07-24T14:20:20;23.73;70.81
64961;SHT31;51487;52.266;10.542;2023-07-24T14:22:47;23.65;70.56
64961;SHT31;51487;52.266;10.542;2023-07-24T14:25:16;23.97;69.68
64961;SHT31;51487;52.266;10.542;2023-07-24T14:27:45;24.16;69.36
64961;SHT31;51487;52.266;10.542;2023-07-24T14:30:14;24.12;69.46
64961;SHT31;51487;52.266;10.542;2023-07-24T14:32:54;23.89;70.09
64961;SHT31;51487;52.266;10.542;2023-07-24T14:35:24;23.60;71.29
64961;SHT31;51487;52.266;10.542;2023-07-24T14:37:53;23.19;72.14
64961;SHT31;51487;52.266;10.542;2023-07-24T14:40:21;23.22;72.65
64961;SHT31;51487;52.266;10.542;2023-07-24T14:42:51;23.19;72.77
64961;SHT31;51487;52.266;10.542;2023-07-24T14:45:17;23.22;72.61
64961;SHT31;51487;52.266;10.542;2023-07-24T14:47:46;23.26;72.81
64961;SHT31;51487;52.266;10.542;2023-07-24T14:50:16;23.30;72.89
64961;SHT31;51487;52.266;10.542;2023-07-24T14:52:42;23.03;73.37
64961;SHT31;51487;52.266;10.542;2023-07-24T14:55:12;22.52;74.20
64961;SHT31;51487;52.266;10.542;2023-07-24T14:57:42;22.57;74.49
64961;SHT31;51487;52.266;10.542;2023-07-24T15:00:16;22.27;75.54
64961;SHT31;51487;52.266;10.542;2023-07-24T15:02:46;22.17;76.32
64961;SHT31;51487;52.266;10.542;2023-07-24T15:05:11;21.92;77.52
64961;SHT31;51487;52.266;10.542;2023-07-24T15:07:48;21.39;77.14
64961;SHT31;51487;52.266;10.542;2023-07-24T15:10:17;20.21;78.56
64961;SHT31;51487;52.266;10.542;2023-07-24T15:12:42;19.55;78.74
64961;SHT31;51487;52.266;10.542;2023-07-24T15:15:11;18.71;81.22
64961;SHT31;51487;52.266;10.542;2023-07-24T15:17:36;18.14;83.59
64961;SHT31;51487;52.266;10.542;2023-07-24T15:20:09;17.91;85.06
64961;SHT31;51487;52.266;10.542;2023-07-24T15:22:37;18.04;85.85